createdAt,value
2023-03-10T00:01:35.093Z,10.13
2023-03-10T00:04:39.167Z,9.80
2023-03-10T00:07:43.320Z,7.22
2023-03-10T00:10:48.110Z,7.90
2023-03-10T00:13:52.925Z,7.30
2023-03-10T00:16:56.773Z,9.65
2023-03-10T00:20:00.840Z,16.70
2023-03-10T00:23:05.750Z,16.98
2023-03-10T00:26:13.432Z,7.53
2023-03-10T00:29:18.605Z,7.70
2023-03-10T00:32:22.751Z,6.57
2023-03-10T00:35:26.826Z,7.70
2023-03-10T00:38:30.675Z,4.88
2023-03-10T00:41:39.835Z,5.13
2023-03-10T00:44:43.953Z,8.00
2023-03-10T00:47:48.002Z,8.13
2023-03-10T00:50:52.205Z,8.30
2023-03-10T00:53:56.795Z,11.23
2023-03-10T00:57:00.805Z,12.57
2023-03-10T01:00:07.760Z,10.82
2023-03-10T01:03:11.586Z,7.53
2023-03-10T01:06:16.171Z,8.07
2023-03-10T01:09:20.044Z,8.17
2023-03-10T01:12:23.932Z,9.68
2023-03-10T01:15:28.113Z,8.93
2023-03-10T01:18:32.653Z,11.10
2023-03-10T01:21:38.956Z,12.88
2023-03-10T01:24:42.928Z,6.05
2023-03-10T01:27:47.067Z,7.05
2023-03-10T01:30:51.725Z,9.18
2023-03-10T01:33:56.417Z,7.53
2023-03-10T01:37:00.869Z,8.15
2023-03-10T01:40:06.272Z,10.70
2023-03-10T01:43:34.081Z,8.18
2023-03-10T01:46:51.378Z,12.52
2023-03-10T01:50:08.076Z,8.52
2023-03-10T01:53:14.068Z,198.23
2023-03-10T01:56:18.792Z,8.23
2023-03-10T01:59:23.512Z,7.22
2023-03-10T02:02:28.475Z,24.70
2023-03-10T02:08:47.478Z,14.70
2023-03-10T02:11:52.094Z,8.68
2023-03-10T02:14:57.978Z,9.30
2023-03-10T02:18:04.496Z,10.43
2023-03-10T02:21:27.881Z,9.00
2023-03-10T02:24:46.786Z,14.30
2023-03-10T02:27:51.781Z,9.70
2023-03-10T02:30:58.973Z,9.23
2023-03-10T02:34:04.881Z,7.85
2023-03-10T02:37:22.855Z,7.32
2023-03-10T02:40:41.232Z,10.13
2023-03-10T02:43:49.945Z,8.30
2023-03-10T02:47:01.532Z,9.32
2023-03-10T02:50:09.229Z,11.32
2023-03-10T02:53:21.709Z,10.68
2023-03-10T02:56:27.622Z,7.43
2023-03-10T02:59:34.175Z,9.63
2023-03-10T03:02:38.844Z,26.55
2023-03-10T03:08:48.034Z,12.38
2023-03-10T03:11:56.547Z,10.52
2023-03-10T03:15:00.584Z,7.80
2023-03-10T03:18:06.932Z,11.15
2023-03-10T03:21:16.572Z,10.05
2023-03-10T03:24:21.975Z,9.25
2023-03-10T03:27:25.920Z,12.10
2023-03-10T03:30:31.414Z,8.32
2023-03-10T03:33:35.740Z,10.45
2023-03-10T03:36:39.863Z,8.88
2023-03-10T03:42:51.661Z,10.02
2023-03-10T03:45:57.846Z,18.42
2023-03-10T03:49:02.603Z,9.27
2023-03-10T03:55:14.070Z,8.77
2023-03-10T03:58:19.578Z,8.13
2023-03-10T04:01:24.697Z,8.25
2023-03-10T04:04:32.444Z,12.50
2023-03-10T04:07:39.240Z,12.80
2023-03-10T04:10:52.169Z,10.95
2023-03-10T04:13:58.725Z,12.25
2023-03-10T04:17:05.551Z,10.13
2023-03-10T04:20:12.458Z,9.50
2023-03-10T04:23:18.758Z,10.52
2023-03-10T04:26:23.412Z,17.10
2023-03-10T04:29:28.295Z,11.95
2023-03-10T04:32:34.345Z,11.18
2023-03-10T04:36:31.872Z,10.35
2023-03-10T04:39:40.730Z,14.70
2023-03-10T04:42:45.186Z,10.27
2023-03-10T04:45:51.839Z,20.25
2023-03-10T04:48:59.632Z,12.25
2023-03-10T04:52:04.648Z,25.98
2023-03-10T04:55:09.570Z,12.63
2023-03-10T04:58:15.824Z,18.88
2023-03-10T05:01:21.015Z,18.70
2023-03-10T05:04:29.954Z,16.92
2023-03-10T05:07:34.156Z,34.65
2023-03-10T05:10:45.151Z,16.40
2023-03-10T05:13:50.021Z,12.10
2023-03-10T05:16:54.766Z,18.50
2023-03-10T05:19:59.813Z,16.42
2023-03-10T05:23:04.876Z,12.57
2023-03-10T05:26:11.841Z,11.50
2023-03-10T05:29:15.897Z,111.53
2023-03-10T05:32:25.290Z,104.93
2023-03-10T05:35:29.611Z,12.40
2023-03-10T05:38:35.752Z,31.02
2023-03-10T05:41:42.234Z,27.70
2023-03-10T05:44:47.347Z,17.73
2023-03-10T05:47:51.863Z,12.75
2023-03-10T05:51:09.395Z,11.10
2023-03-10T05:54:14.518Z,18.58
2023-03-10T05:57:19.258Z,14.43
2023-03-10T06:00:24.335Z,12.50
2023-03-10T06:03:37.433Z,13.57
2023-03-10T06:09:46.709Z,9.93
2023-03-10T06:12:51.384Z,10.57
2023-03-10T06:15:58.376Z,12.23
2023-03-10T06:19:02.782Z,12.70
2023-03-10T06:22:07.074Z,12.35
2023-03-10T06:25:11.966Z,11.60
2023-03-10T06:28:17.489Z,8.23
2023-03-10T06:31:25.514Z,12.15
2023-03-10T06:34:30.116Z,11.77
2023-03-10T06:37:34.691Z,11.77
2023-03-10T06:40:39.419Z,18.35
2023-03-10T06:43:44.342Z,15.20
2023-03-10T06:46:48.785Z,12.53
2023-03-10T06:49:55.575Z,11.35
2023-03-10T06:52:59.899Z,10.95
2023-03-10T06:56:07.473Z,11.57
2023-03-10T06:59:11.886Z,16.02
2023-03-10T07:02:16.397Z,12.85
2023-03-10T07:05:20.475Z,12.88
2023-03-10T07:08:24.841Z,12.20
2023-03-10T07:11:31.062Z,9.75
2023-03-10T07:14:37.990Z,10.60
2023-03-10T07:17:42.367Z,17.58
2023-03-10T07:20:46.928Z,17.90
2023-03-10T07:23:51.271Z,15.98
2023-03-10T07:26:55.920Z,18.80
2023-03-10T07:29:59.801Z,20.08
2023-03-10T07:33:03.991Z,22.70
2023-03-10T07:36:10.669Z,16.65
2023-03-10T07:39:15.400Z,16.65
2023-03-10T07:42:20.024Z,12.93
2023-03-10T07:45:25.348Z,11.13
2023-03-10T07:48:29.403Z,17.87
2023-03-10T07:51:34.310Z,16.67
2023-03-10T07:54:39.013Z,23.67
2023-03-10T07:57:43.860Z,72.85
2023-03-10T08:00:54.784Z,77.43
2023-03-10T08:03:59.277Z,26.50
2023-03-10T08:07:03.823Z,22.95
2023-03-10T08:10:08.952Z,20.23
2023-03-10T08:13:13.577Z,63.85
2023-03-10T08:16:21.045Z,96.75
2023-03-10T08:19:26.829Z,22.20
2023-03-10T08:22:31.636Z,37.50
2023-03-10T08:25:36.647Z,84.05
2023-03-10T08:28:41.168Z,231.48
2023-03-10T08:31:45.816Z,254.30
2023-03-10T08:34:50.154Z,249.90
2023-03-10T08:37:55.405Z,206.77
2023-03-10T08:41:10.048Z,144.77
2023-03-10T08:44:16.408Z,84.50
2023-03-10T08:47:21.629Z,39.03
2023-03-10T08:50:26.085Z,33.47
2023-03-10T08:53:30.584Z,23.33
2023-03-10T08:56:35.950Z,16.52
2023-03-10T08:59:40.390Z,11.65
2023-03-10T09:02:44.738Z,30.75
2023-03-10T09:05:51.098Z,40.65
2023-03-10T09:08:55.836Z,24.17
2023-03-10T09:12:00.978Z,25.70
2023-03-10T09:15:05.743Z,35.85
2023-03-10T09:18:11.626Z,58.10
2023-03-10T09:21:19.386Z,34.70
2023-03-10T09:24:23.674Z,28.70
2023-03-10T09:27:28.163Z,22.58
2023-03-10T09:30:32.216Z,36.45
2023-03-10T09:33:36.780Z,78.40
2023-03-10T09:36:41.065Z,78.63
2023-03-10T09:39:44.904Z,43.08
2023-03-10T09:42:52.685Z,36.50
2023-03-10T09:46:14.012Z,22.95
2023-03-10T09:49:34.687Z,15.73
2023-03-10T09:52:49.046Z,19.08
2023-03-10T09:55:54.116Z,21.92
2023-03-10T09:59:12.068Z,20.85
2023-03-10T10:02:27.187Z,22.20
2023-03-10T10:05:34.451Z,14.18
2023-03-10T10:09:04.676Z,17.52
2023-03-10T10:12:14.669Z,17.13
2023-03-10T10:15:23.188Z,13.40
2023-03-10T10:18:44.341Z,14.82
2023-03-10T10:22:02.545Z,17.98
2023-03-10T10:25:09.943Z,30.90
2023-03-10T10:28:49.168Z,47.65
2023-03-10T10:32:14.232Z,52.72
2023-03-10T10:35:25.873Z,44.60
2023-03-10T10:38:32.441Z,37.05
2023-03-10T10:41:38.640Z,66.10
2023-03-10T10:44:47.065Z,60.13
2023-03-10T10:47:53.475Z,54.53
2023-03-10T10:50:57.836Z,51.33
2023-03-10T10:54:09.429Z,41.17
2023-03-10T10:57:22.514Z,22.92
2023-03-10T11:00:28.813Z,13.48
2023-03-10T11:03:35.223Z,14.50
2023-03-10T11:06:41.450Z,13.65
2023-03-10T11:09:45.808Z,11.97
2023-03-10T11:13:10.499Z,14.60
2023-03-10T11:16:38.270Z,14.55
2023-03-10T11:20:03.530Z,11.02
2023-03-10T11:23:14.853Z,10.60
2023-03-10T11:26:33.084Z,9.40
2023-03-10T11:29:58.501Z,10.57
2023-03-10T11:33:06.624Z,11.07
2023-03-10T11:36:27.179Z,10.60
2023-03-10T11:39:31.473Z,10.07
2023-03-10T11:42:57.098Z,14.65
2023-03-10T11:46:34.985Z,12.87
2023-03-10T11:49:44.458Z,12.00
2023-03-10T11:52:50.772Z,12.48
2023-03-10T11:55:56.451Z,10.80
2023-03-10T11:59:12.675Z,10.77
2023-03-10T12:05:47.166Z,10.13
2023-03-10T12:08:55.949Z,12.65
2023-03-10T12:12:02.358Z,10.63
2023-03-10T12:15:21.510Z,10.55
2023-03-10T12:18:26.981Z,9.57
2023-03-10T12:21:32.666Z,10.35
2023-03-10T12:24:54.676Z,10.80
2023-03-10T12:28:21.446Z,10.57
2023-03-10T12:31:41.255Z,13.20
2023-03-10T12:34:47.219Z,11.38
2023-03-10T12:38:11.968Z,9.98
2023-03-10T12:41:27.952Z,10.75
2023-03-10T12:44:50.719Z,10.63
2023-03-10T12:48:08.357Z,11.15
2023-03-10T12:51:18.495Z,12.70
2023-03-10T12:54:24.237Z,11.30
2023-03-10T12:57:40.857Z,14.60
2023-03-10T13:00:55.612Z,12.85
2023-03-10T13:04:07.988Z,12.40
2023-03-10T13:07:18.169Z,15.05
2023-03-10T13:10:26.010Z,13.23
2023-03-10T13:13:38.734Z,13.93
2023-03-10T13:16:54.231Z,13.65
2023-03-10T13:19:59.772Z,11.90
2023-03-10T13:23:04.518Z,14.40
2023-03-10T13:26:19.031Z,15.88
2023-03-10T13:29:24.515Z,11.25
2023-03-10T13:32:28.719Z,13.38
2023-03-10T13:35:36.788Z,9.40
2023-03-10T13:38:44.228Z,15.02
2023-03-10T13:41:50.772Z,11.20
2023-03-10T13:44:56.205Z,11.30
2023-03-10T13:48:03.969Z,10.23
2023-03-10T13:51:22.028Z,10.18
2023-03-10T13:54:32.428Z,7.97
2023-03-10T13:57:38.109Z,12.00
2023-03-10T14:00:48.030Z,11.73
2023-03-10T14:04:00.833Z,15.32
2023-03-10T14:07:10.921Z,11.00
2023-03-10T14:10:20.726Z,11.77
2023-03-10T14:13:45.951Z,10.68
2023-03-10T14:17:00.102Z,9.93
2023-03-10T14:20:05.994Z,11.32
2023-03-10T14:23:23.117Z,11.20
2023-03-10T14:26:27.507Z,9.70
2023-03-10T14:29:33.279Z,9.48
2023-03-10T14:35:41.472Z,9.75
2023-03-10T14:38:49.264Z,9.85
2023-03-10T14:41:57.407Z,9.20
2023-03-10T14:45:07.748Z,10.73
2023-03-10T14:48:16.448Z,10.70
2023-03-10T14:51:34.357Z,9.00
2023-03-10T14:54:39.865Z,10.60
2023-03-10T14:57:50.397Z,11.55
2023-03-10T15:00:55.253Z,11.00
2023-03-10T15:04:02.796Z,9.30
2023-03-10T15:07:11.759Z,8.48
2023-03-10T15:10:18.570Z,10.00
2023-03-10T15:13:25.299Z,9.45
2023-03-10T15:16:29.862Z,8.05
2023-03-10T15:19:34.566Z,8.98
2023-03-10T15:22:38.948Z,8.38
2023-03-10T15:25:45.611Z,8.90
2023-03-10T15:28:49.974Z,9.02
2023-03-10T15:31:54.013Z,9.40
2023-03-10T15:34:58.690Z,10.25
2023-03-10T15:38:03.440Z,8.13
2023-03-10T15:41:08.094Z,11.70
2023-03-10T15:44:12.579Z,9.30
2023-03-10T15:47:17.243Z,8.65
2023-03-10T15:50:23.176Z,9.05
2023-03-10T15:53:27.682Z,10.00
2023-03-10T15:56:32.196Z,10.10
2023-03-10T15:59:37.590Z,9.88
2023-03-10T16:02:42.125Z,9.38
2023-03-10T16:05:50.273Z,9.55
2023-03-10T16:08:54.678Z,9.48
2023-03-10T16:11:59.449Z,9.10
2023-03-10T16:15:03.504Z,8.10
2023-03-10T16:18:07.204Z,11.57
2023-03-10T16:21:11.908Z,9.23
2023-03-10T16:24:15.847Z,12.33
2023-03-10T16:27:19.849Z,9.32
2023-03-10T16:30:28.846Z,9.80
2023-03-10T16:33:33.508Z,7.45
2023-03-10T16:36:38.049Z,9.70
2023-03-10T16:39:42.426Z,11.20
2023-03-10T16:42:47.213Z,9.32
2023-03-10T16:45:51.927Z,9.02
2023-03-10T16:48:57.249Z,10.27
2023-03-10T16:52:03.696Z,9.50
2023-03-10T16:55:10.218Z,11.23
2023-03-10T16:58:15.079Z,11.57
2023-03-10T17:01:20.527Z,10.30
2023-03-10T17:04:24.537Z,9.80
2023-03-10T17:07:28.478Z,10.45
2023-03-10T17:10:34.219Z,11.32
2023-03-10T17:13:39.492Z,12.98
2023-03-10T17:16:45.595Z,11.85
2023-03-10T17:19:51.876Z,13.05
2023-03-10T17:22:56.215Z,12.95
2023-03-10T17:26:02.012Z,12.73
2023-03-10T17:29:06.623Z,11.55
2023-03-10T17:32:10.791Z,13.32
2023-03-10T17:35:15.381Z,15.43
2023-03-10T17:38:19.347Z,11.75
2023-03-10T17:41:23.973Z,14.85
2023-03-10T17:44:27.910Z,12.60
2023-03-10T17:47:33.161Z,11.75
2023-03-10T17:50:36.996Z,13.45
2023-03-10T17:53:41.204Z,13.27
2023-03-10T17:56:45.477Z,11.55
2023-03-10T17:59:52.036Z,14.57
2023-03-10T18:02:56.285Z,12.30
2023-03-10T18:06:00.555Z,13.32
2023-03-10T18:09:07.204Z,14.25
2023-03-10T18:12:11.995Z,15.52
2023-03-10T18:15:16.779Z,14.83
2023-03-10T18:18:20.956Z,13.70
2023-03-10T18:21:26.272Z,14.25
2023-03-10T18:24:30.663Z,17.27
2023-03-10T18:27:35.076Z,12.53
2023-03-10T18:30:44.500Z,14.23
2023-03-10T18:33:49.473Z,11.75
2023-03-10T18:36:53.924Z,13.25
2023-03-10T18:39:59.117Z,15.13
2023-03-10T18:43:02.856Z,13.60
2023-03-10T18:46:07.556Z,13.95
2023-03-10T18:49:12.087Z,15.45
2023-03-10T18:52:19.468Z,14.38
2023-03-10T18:55:23.403Z,14.13
2023-03-10T18:58:27.419Z,18.33
2023-03-10T19:01:33.070Z,15.00
2023-03-10T19:04:38.228Z,14.40
2023-03-10T19:07:42.343Z,13.95
2023-03-10T19:10:46.387Z,16.35
2023-03-10T19:13:51.169Z,16.38
2023-03-10T19:16:55.323Z,16.80
2023-03-10T19:19:59.719Z,15.40
2023-03-10T19:23:03.650Z,16.77
2023-03-10T19:26:09.859Z,16.63
2023-03-10T19:29:14.076Z,14.60
2023-03-10T19:32:17.826Z,15.35
2023-03-10T19:35:22.160Z,15.10
2023-03-10T19:38:28.902Z,13.73
2023-03-10T19:41:32.829Z,22.40
2023-03-10T19:44:39.597Z,17.70
2023-03-10T19:47:44.189Z,15.35
2023-03-10T19:50:55.728Z,16.13
2023-03-10T19:54:02.610Z,14.02
2023-03-10T19:57:08.431Z,18.23
2023-03-10T20:00:16.949Z,16.35
2023-03-10T20:03:21.571Z,17.40
2023-03-10T20:06:26.587Z,25.60
2023-03-10T20:09:30.585Z,22.13
2023-03-10T20:12:34.892Z,14.77
2023-03-10T20:15:39.766Z,15.68
2023-03-10T20:18:43.730Z,17.42
2023-03-10T20:21:48.124Z,12.05
2023-03-10T20:24:52.077Z,16.85
2023-03-10T20:27:56.974Z,14.13
2023-03-10T20:31:01.094Z,15.95
2023-03-10T20:34:07.784Z,23.98
2023-03-10T20:37:11.970Z,14.52
2023-03-10T20:40:24.719Z,14.95
2023-03-10T20:43:28.912Z,15.65
2023-03-10T20:46:33.656Z,16.00
2023-03-10T20:49:37.655Z,20.60
2023-03-10T20:52:44.191Z,22.77
2023-03-10T20:55:48.202Z,32.00
2023-03-10T20:58:51.861Z,27.48
2023-03-10T21:01:55.691Z,20.83
2023-03-10T21:05:00.595Z,23.60
2023-03-10T21:08:05.068Z,24.17
2023-03-10T21:11:08.956Z,21.02
2023-03-10T21:14:12.960Z,19.85
2023-03-10T21:17:17.726Z,24.80
2023-03-10T21:20:23.438Z,21.92
2023-03-10T21:26:31.814Z,26.67
2023-03-10T21:29:36.646Z,19.60
2023-03-10T21:32:40.766Z,18.67
2023-03-10T21:35:45.065Z,18.85
2023-03-10T21:38:53.364Z,18.40
2023-03-10T21:42:00.410Z,16.67
2023-03-10T21:45:06.300Z,21.17
2023-03-10T21:51:18.268Z,18.00
2023-03-10T21:54:22.818Z,22.33
2023-03-10T21:57:26.863Z,18.60
2023-03-10T22:00:30.854Z,19.73
2023-03-10T22:03:37.025Z,17.20
2023-03-10T22:06:41.716Z,16.58
2023-03-10T22:09:45.885Z,17.65
2023-03-10T22:12:49.920Z,21.50
2023-03-10T22:15:54.013Z,21.70
2023-03-10T22:18:58.454Z,18.95
2023-03-10T22:22:05.218Z,16.80
2023-03-10T22:25:09.787Z,18.65
2023-03-10T22:31:20.149Z,25.75
2023-03-10T22:34:24.123Z,22.00
2023-03-10T22:37:28.410Z,15.52
2023-03-10T22:40:32.960Z,17.63
2023-03-10T22:43:37.323Z,18.17
2023-03-10T22:46:45.159Z,16.65
2023-03-10T22:49:49.304Z,17.23
2023-03-10T22:52:53.212Z,15.40
2023-03-10T22:55:57.778Z,16.00
2023-03-10T22:59:04.567Z,17.00
2023-03-10T23:02:11.547Z,17.42
2023-03-10T23:05:16.628Z,20.45
2023-03-10T23:08:21.410Z,18.95
2023-03-10T23:11:25.726Z,14.23
2023-03-10T23:14:29.631Z,13.93
2023-03-10T23:17:33.722Z,15.13
2023-03-10T23:20:42.338Z,11.77
2023-03-10T23:23:48.578Z,12.63
2023-03-10T23:26:52.553Z,13.98
2023-03-10T23:29:56.428Z,13.15
2023-03-10T23:33:00.621Z,13.02
2023-03-10T23:36:04.501Z,12.50
2023-03-10T23:39:11.861Z,14.60
2023-03-10T23:42:15.911Z,13.52
2023-03-10T23:45:22.484Z,13.82
2023-03-10T23:48:26.657Z,13.75
2023-03-10T23:51:31.517Z,15.10
2023-03-10T23:54:36.077Z,20.50
2023-03-10T23:57:40.132Z,11.97
